createdAt,value
2018-09-23T00:01:30.739Z,71.80
2018-09-23T00:03:58.616Z,71.50
2018-09-23T00:06:26.581Z,72.30
2018-09-23T00:08:54.604Z,71.70
2018-09-23T00:11:22.555Z,72.80
2018-09-23T00:13:50.486Z,73.20
2018-09-23T00:16:18.435Z,72.80
2018-09-23T00:18:46.417Z,73.10
2018-09-23T00:21:14.511Z,72.70
2018-09-23T00:23:42.470Z,72.60
2018-09-23T00:26:10.529Z,72.70
2018-09-23T00:28:38.536Z,73.10
2018-09-23T00:31:06.609Z,72.90
2018-09-23T00:33:34.627Z,72.00
2018-09-23T00:36:02.555Z,72.70
2018-09-23T00:38:30.455Z,72.80
2018-09-23T00:40:58.494Z,73.60
2018-09-23T00:43:26.388Z,72.60
2018-09-23T00:45:54.267Z,73.00
2018-09-23T00:48:22.319Z,73.30
2018-09-23T00:50:50.202Z,73.20
2018-09-23T00:53:18.124Z,72.70
2018-09-23T00:55:46.167Z,72.40
2018-09-23T00:58:14.108Z,73.00
2018-09-23T01:00:42.048Z,73.30
2018-09-23T01:03:09.938Z,73.00
2018-09-23T01:05:37.859Z,73.90
2018-09-23T01:08:06.218Z,72.80
2018-09-23T01:10:34.159Z,73.10
2018-09-23T01:13:02.157Z,73.10
2018-09-23T01:15:30.077Z,72.40
2018-09-23T01:17:58.052Z,73.50
2018-09-23T01:20:25.968Z,75.40
2018-09-23T01:22:53.833Z,74.20
2018-09-23T01:25:21.789Z,74.10
2018-09-23T01:27:49.757Z,75.60
2018-09-23T01:30:17.599Z,75.60
2018-09-23T01:32:45.852Z,76.40
2018-09-23T01:35:13.761Z,77.10
2018-09-23T01:37:41.732Z,77.10
2018-09-23T01:40:09.831Z,77.40
2018-09-23T01:42:37.611Z,76.70
2018-09-23T01:45:06.021Z,76.20
2018-09-23T01:47:34.042Z,74.80
2018-09-23T01:50:02.299Z,75.20
2018-09-23T01:52:30.217Z,71.80
2018-09-23T01:54:58.197Z,71.70
2018-09-23T01:57:26.205Z,71.70
2018-09-23T01:59:54.302Z,70.20
2018-09-23T02:02:22.257Z,70.30
2018-09-23T02:04:50.196Z,70.60
2018-09-23T02:07:18.319Z,71.40
2018-09-23T02:09:46.366Z,71.50
2018-09-23T02:12:14.395Z,72.00
2018-09-23T02:17:17.062Z,73.10
2018-09-23T02:19:45.038Z,72.80
2018-09-23T02:22:12.990Z,71.70
2018-09-23T02:24:41.094Z,72.80
2018-09-23T02:27:09.059Z,72.10
2018-09-23T02:29:37.010Z,72.90
2018-09-23T02:32:05.268Z,73.60
2018-09-23T02:34:33.259Z,74.00
2018-09-23T02:37:01.165Z,74.10
2018-09-23T02:39:29.104Z,74.50
2018-09-23T02:41:57.119Z,72.90
2018-09-23T02:44:25.109Z,73.90
2018-09-23T02:46:53.440Z,74.20
2018-09-23T02:49:21.454Z,74.50
2018-09-23T02:51:49.310Z,74.80
2018-09-23T02:54:17.232Z,76.00
2018-09-23T02:56:45.244Z,77.40
2018-09-23T02:59:13.400Z,78.00
2018-09-23T03:01:41.395Z,77.70
2018-09-23T03:04:09.944Z,78.60
2018-09-23T03:06:37.916Z,78.90
2018-09-23T03:09:06.069Z,81.10
2018-09-23T03:11:34.051Z,79.60
2018-09-23T03:14:01.931Z,80.40
2018-09-23T03:16:29.937Z,81.00
2018-09-23T03:18:57.819Z,80.10
2018-09-23T03:21:25.724Z,80.50
2018-09-23T03:23:53.635Z,82.00
2018-09-23T03:26:21.476Z,83.10
2018-09-23T03:28:49.500Z,83.70
2018-09-23T03:31:17.143Z,83.80
2018-09-23T03:33:44.753Z,83.20
2018-09-23T03:36:12.465Z,83.20
2018-09-23T03:38:40.302Z,82.80
2018-09-23T03:41:07.966Z,81.90
2018-09-23T03:43:35.686Z,82.50
2018-09-23T03:46:03.338Z,83.60
2018-09-23T03:48:30.887Z,84.90
2018-09-23T03:50:58.544Z,84.30
2018-09-23T03:53:26.086Z,83.30
2018-09-23T03:55:53.658Z,83.80
2018-09-23T03:58:21.397Z,83.40
2018-09-23T04:00:49.076Z,83.20
2018-09-23T04:03:16.760Z,82.80
2018-09-23T04:05:44.458Z,83.70
2018-09-23T04:08:12.076Z,81.80
2018-09-23T04:10:39.819Z,81.80
2018-09-23T04:13:07.513Z,80.70
2018-09-23T04:15:35.143Z,80.70
2018-09-23T04:18:02.707Z,80.60
2018-09-23T04:20:30.515Z,80.00
2018-09-23T04:22:58.119Z,78.70
2018-09-23T04:25:25.668Z,78.40
2018-09-23T04:27:53.300Z,78.40
2018-09-23T04:30:21.626Z,77.80
2018-09-23T04:32:49.994Z,78.00
2018-09-23T04:35:18.377Z,77.80
2018-09-23T04:37:46.937Z,77.40
2018-09-23T04:40:14.670Z,76.60
2018-09-23T04:42:42.392Z,77.90
2018-09-23T04:45:09.979Z,79.20
2018-09-23T04:47:37.791Z,79.20
2018-09-23T04:50:05.748Z,79.50
2018-09-23T04:52:33.310Z,81.10
2018-09-23T04:55:01.116Z,80.20
2018-09-23T04:57:28.871Z,79.60
2018-09-23T04:59:56.503Z,79.00
2018-09-23T05:02:24.234Z,79.70
2018-09-23T05:04:52.016Z,80.10
2018-09-23T05:07:20.339Z,79.00
2018-09-23T05:09:47.912Z,79.30
2018-09-23T05:12:15.721Z,79.80
2018-09-23T05:14:43.728Z,79.90
2018-09-23T05:17:11.534Z,79.80
2018-09-23T05:19:39.208Z,80.70
2018-09-23T05:22:06.933Z,80.10
2018-09-23T05:24:34.584Z,79.70
2018-09-23T05:27:02.123Z,79.80
2018-09-23T05:29:29.741Z,78.90
2018-09-23T05:31:57.712Z,79.40
2018-09-23T05:34:25.240Z,81.10
2018-09-23T05:36:52.854Z,82.80
2018-09-23T05:39:20.443Z,82.60
2018-09-23T05:41:48.022Z,83.40
2018-09-23T05:44:15.700Z,82.00
2018-09-23T05:46:43.327Z,80.40
2018-09-23T05:49:10.935Z,81.50
2018-09-23T05:51:38.874Z,82.10
2018-09-23T05:54:06.419Z,81.60
2018-09-23T05:56:34.299Z,81.60
2018-09-23T05:59:01.966Z,82.30
2018-09-23T06:01:29.784Z,83.70
2018-09-23T06:03:57.817Z,83.80
2018-09-23T06:06:25.406Z,83.30
2018-09-23T06:08:53.054Z,83.40
2018-09-23T06:11:20.963Z,83.30
2018-09-23T06:13:48.696Z,83.50
2018-09-23T06:16:16.388Z,84.50
2018-09-23T06:18:44.367Z,85.00
2018-09-23T06:21:11.999Z,85.20
2018-09-23T06:23:40.178Z,86.10
2018-09-23T06:26:07.884Z,86.70
2018-09-23T06:28:35.511Z,84.60
2018-09-23T06:31:03.441Z,83.80
2018-09-23T06:33:31.224Z,83.10
2018-09-23T06:35:58.759Z,82.90
2018-09-23T06:38:26.476Z,82.00
2018-09-23T06:40:54.101Z,81.00
2018-09-23T06:43:22.077Z,80.70
2018-09-23T06:45:49.741Z,79.60
2018-09-23T06:48:17.250Z,79.80
2018-09-23T06:50:44.871Z,80.90
2018-09-23T06:53:12.412Z,82.20
2018-09-23T06:55:40.138Z,81.30
2018-09-23T06:58:07.806Z,81.70
2018-09-23T07:00:35.416Z,81.10
2018-09-23T07:03:02.986Z,80.70
2018-09-23T07:05:30.581Z,81.40
2018-09-23T07:07:58.200Z,82.20
2018-09-23T07:10:25.876Z,84.10
2018-09-23T07:12:53.874Z,85.00
2018-09-23T07:15:21.707Z,86.90
2018-09-23T07:17:49.525Z,86.50
2018-09-23T07:20:17.184Z,86.60
2018-09-23T07:22:45.117Z,84.90
2018-09-23T07:25:12.798Z,83.80
2018-09-23T07:27:40.563Z,85.30
2018-09-23T07:30:08.507Z,85.30
2018-09-23T07:32:36.205Z,83.50
2018-09-23T07:35:03.876Z,83.10
2018-09-23T07:37:31.532Z,82.50
2018-09-23T07:40:00.170Z,82.30
2018-09-23T07:42:27.825Z,81.90
2018-09-23T07:44:55.382Z,81.70
2018-09-23T07:47:22.990Z,81.70
2018-09-23T07:49:50.698Z,83.60
2018-09-23T07:52:18.355Z,83.40
2018-09-23T07:54:46.086Z,82.50
2018-09-23T07:57:13.649Z,82.10
2018-09-23T07:59:41.285Z,83.50
2018-09-23T08:02:09.896Z,83.10
2018-09-23T08:04:38.342Z,81.80
2018-09-23T08:07:05.982Z,84.00
2018-09-23T08:09:33.959Z,85.30
2018-09-23T08:12:01.874Z,85.00
2018-09-23T08:14:30.080Z,83.30
2018-09-23T08:16:57.338Z,84.70
2018-09-23T08:19:25.064Z,85.80
2018-09-23T08:21:52.585Z,88.20
2018-09-23T08:24:20.154Z,84.50
2018-09-23T08:26:47.852Z,84.60
2018-09-23T08:29:15.782Z,86.00
2018-09-23T08:31:43.818Z,86.30
2018-09-23T08:34:12.010Z,86.50
2018-09-23T08:36:40.778Z,85.70
2018-09-23T08:39:09.806Z,83.70
2018-09-23T08:41:38.535Z,80.30
2018-09-23T08:44:07.089Z,82.00
2018-09-23T08:46:36.351Z,80.30
2018-09-23T08:49:05.235Z,79.10
2018-09-23T08:51:33.613Z,80.90
2018-09-23T08:54:01.606Z,81.70
2018-09-23T08:56:30.022Z,85.00
2018-09-23T08:58:58.519Z,86.20
2018-09-23T09:01:26.620Z,82.80
2018-09-23T09:03:54.748Z,84.50
2018-09-23T09:06:22.683Z,83.80
2018-09-23T09:08:51.438Z,85.40
2018-09-23T09:11:19.515Z,85.20
2018-09-23T09:13:48.455Z,84.50
2018-09-23T09:16:17.290Z,84.30
2018-09-23T09:18:46.121Z,83.90
2018-09-23T09:21:14.160Z,82.60
2018-09-23T09:23:43.394Z,82.40
2018-09-23T09:26:11.508Z,81.80
2018-09-23T09:28:40.120Z,82.80
2018-09-23T09:31:07.811Z,82.30
2018-09-23T09:33:35.492Z,83.60
2018-09-23T09:36:03.144Z,83.90
2018-09-23T09:38:30.881Z,83.50
2018-09-23T09:40:58.485Z,86.70
2018-09-23T09:43:26.165Z,86.00
2018-09-23T09:45:53.767Z,89.10
2018-09-23T09:48:22.456Z,89.20
2018-09-23T09:50:50.149Z,88.40
2018-09-23T09:53:17.745Z,88.80
2018-09-23T09:55:45.342Z,89.70
2018-09-23T09:58:12.976Z,89.90
2018-09-23T10:00:40.831Z,90.50
2018-09-23T10:03:08.531Z,90.70
2018-09-23T10:05:36.209Z,91.50
2018-09-23T10:08:03.877Z,91.30
2018-09-23T10:10:31.850Z,91.80
2018-09-23T10:26:41.344Z,90.90
2018-09-23T10:29:08.911Z,89.90
2018-09-23T10:31:36.549Z,90.40
2018-09-23T10:34:04.490Z,90.90
2018-09-23T10:36:32.136Z,90.90
2018-09-23T10:38:59.973Z,91.00
2018-09-23T10:41:27.722Z,91.40
2018-09-23T10:43:55.379Z,91.60
2018-09-23T10:46:23.158Z,92.50
2018-09-23T10:48:50.769Z,92.80
2018-09-23T10:51:18.441Z,91.80
2018-09-23T10:53:46.309Z,91.00
2018-09-23T10:56:14.197Z,92.10
2018-09-23T10:58:41.828Z,93.10
2018-09-23T11:01:09.639Z,92.70
2018-09-23T11:03:37.392Z,92.30
2018-09-23T11:06:05.079Z,92.50
2018-09-23T11:08:32.771Z,92.60
2018-09-23T11:11:00.830Z,93.10
2018-09-23T11:13:28.536Z,93.10
2018-09-23T11:15:56.184Z,92.70
2018-09-23T11:18:23.799Z,91.50
2018-09-23T11:20:51.487Z,92.30
2018-09-23T11:23:19.239Z,91.80
2018-09-23T11:25:46.903Z,91.80
2018-09-23T11:28:14.554Z,91.00
2018-09-23T11:30:42.450Z,91.20
2018-09-23T11:33:10.004Z,91.40
2018-09-23T11:35:37.810Z,92.10
2018-09-23T11:38:05.517Z,91.50
2018-09-23T11:40:33.206Z,91.50
2018-09-23T11:43:01.264Z,90.00
2018-09-23T11:45:28.849Z,91.20
2018-09-23T11:47:56.568Z,90.60
2018-09-23T11:50:24.479Z,89.90
2018-09-23T11:52:52.388Z,91.30
2018-09-23T11:55:20.309Z,90.80
2018-09-23T11:57:48.252Z,91.20
2018-09-23T12:00:15.930Z,92.40
2018-09-23T12:02:43.594Z,92.30
2018-09-23T12:05:11.453Z,90.00
2018-09-23T12:07:39.343Z,90.60
2018-09-23T12:10:07.057Z,91.20
2018-09-23T12:12:34.721Z,92.50
2018-09-23T12:15:02.616Z,90.70
2018-09-23T12:17:30.192Z,92.20
2018-09-23T12:19:57.778Z,93.20
2018-09-23T12:22:25.429Z,93.20
2018-09-23T12:24:53.118Z,92.80
2018-09-23T12:27:20.979Z,93.90
2018-09-23T12:29:48.519Z,94.70
2018-09-23T12:32:16.053Z,95.70
2018-09-23T12:34:43.605Z,95.10
2018-09-23T12:37:11.160Z,95.40
2018-09-23T12:39:38.810Z,95.40
2018-09-23T12:42:06.448Z,95.20
2018-09-23T12:44:34.029Z,96.90
2018-09-23T12:47:01.583Z,96.80
2018-09-23T12:49:29.516Z,97.30
2018-09-23T12:51:57.871Z,97.60
2018-09-23T12:54:25.734Z,98.80
2018-09-23T12:56:53.437Z,97.80
2018-09-23T12:59:21.287Z,97.70
2018-09-23T13:01:49.229Z,97.80
2018-09-23T13:04:16.870Z,97.90
2018-09-23T13:06:44.584Z,99.10
2018-09-23T13:09:12.276Z,99.50
2018-09-23T13:11:39.817Z,99.90
2018-09-23T13:14:07.928Z,99.90
2018-09-23T13:16:35.701Z,99.90
2018-09-23T13:19:03.335Z,98.70
2018-09-23T13:21:31.072Z,99.50
2018-09-23T13:23:58.658Z,99.90
2018-09-23T13:26:26.207Z,99.90
2018-09-23T13:28:53.844Z,99.90
2018-09-23T13:31:21.472Z,99.70
2018-09-23T13:33:49.045Z,99.90
2018-09-23T13:36:16.813Z,99.90
2018-09-23T13:38:44.406Z,98.20
2018-09-23T13:41:11.948Z,99.90
2018-09-23T13:43:39.573Z,99.90
2018-09-23T13:46:07.232Z,99.90
2018-09-23T13:48:35.143Z,99.90
2018-09-23T13:51:02.743Z,99.90
2018-09-23T13:53:30.626Z,99.90
2018-09-23T13:55:58.294Z,99.90
2018-09-23T13:58:25.943Z,99.90
2018-09-23T14:00:53.555Z,99.90
2018-09-23T14:03:21.168Z,99.90
2018-09-23T14:05:48.811Z,99.90
2018-09-23T14:08:16.534Z,99.90
2018-09-23T14:10:44.355Z,99.90
2018-09-23T14:13:12.275Z,99.90
2018-09-23T14:15:40.017Z,99.90
2018-09-23T14:18:07.668Z,99.90
2018-09-23T14:20:35.464Z,99.90
2018-09-23T14:23:03.238Z,99.90
2018-09-23T14:25:31.144Z,99.90
2018-09-23T14:27:59.278Z,99.90
2018-09-23T14:30:27.051Z,99.90
2018-09-23T14:32:54.770Z,99.90
2018-09-23T14:35:22.480Z,99.90
2018-09-23T14:37:50.003Z,99.90
2018-09-23T14:40:17.818Z,99.90
2018-09-23T14:42:45.454Z,99.90
2018-09-23T14:45:13.391Z,99.90
2018-09-23T14:47:41.016Z,98.30
2018-09-23T14:50:08.729Z,99.90
2018-09-23T14:52:36.569Z,99.40
2018-09-23T14:55:04.307Z,99.10
2018-09-23T14:57:32.008Z,96.30
2018-09-23T15:00:03.068Z,98.10
2018-09-23T15:02:27.486Z,97.70
2018-09-23T15:04:55.151Z,97.00
2018-09-23T15:07:22.923Z,94.60
2018-09-23T15:09:50.733Z,95.90
2018-09-23T15:12:18.591Z,96.10
2018-09-23T15:14:46.315Z,96.30
2018-09-23T15:17:14.081Z,95.80
2018-09-23T15:19:41.718Z,94.90
2018-09-23T15:22:09.743Z,94.10
2018-09-23T15:24:37.387Z,94.60
2018-09-23T15:27:05.146Z,94.00
2018-09-23T15:29:32.849Z,93.90
2018-09-23T15:32:00.603Z,94.30
2018-09-23T15:34:28.224Z,93.40
2018-09-23T15:36:55.964Z,93.60
2018-09-23T15:39:23.520Z,92.40
2018-09-23T15:41:51.162Z,92.60
2018-09-23T15:44:18.931Z,92.20
2018-09-23T15:46:46.948Z,93.70
2018-09-23T15:49:14.604Z,94.00
2018-09-23T15:51:42.183Z,94.90
2018-09-23T15:54:09.904Z,96.10
2018-09-23T15:56:37.790Z,98.80
2018-09-23T15:59:06.630Z,99.90
2018-09-23T16:01:34.237Z,99.90
2018-09-23T16:04:01.784Z,99.90
2018-09-23T16:06:29.400Z,99.90
2018-09-23T16:08:57.006Z,99.90
2018-09-23T16:11:24.770Z,99.90
2018-09-23T16:13:53.459Z,99.90
2018-09-23T16:16:21.149Z,99.90
2018-09-23T16:18:50.034Z,99.90
2018-09-23T16:21:17.606Z,99.90
2018-09-23T16:23:45.205Z,99.90
2018-09-23T16:26:12.713Z,99.90
2018-09-23T16:28:40.248Z,99.90
2018-09-23T16:31:08.245Z,99.90
2018-09-23T16:33:35.909Z,99.90
2018-09-23T16:36:03.618Z,99.90
2018-09-23T16:38:31.266Z,99.90
2018-09-23T16:40:59.028Z,99.90
2018-09-23T16:43:26.651Z,99.90
2018-09-23T16:45:54.340Z,99.90
2018-09-23T16:48:22.440Z,99.90
2018-09-23T16:50:50.126Z,99.90
2018-09-23T16:53:17.708Z,99.90
2018-09-23T16:55:45.282Z,99.90
2018-09-23T16:58:12.964Z,99.90
2018-09-23T17:00:40.911Z,99.90
2018-09-23T17:03:08.493Z,99.90
2018-09-23T17:05:36.066Z,99.90
2018-09-23T17:08:04.016Z,99.90
2018-09-23T17:10:31.708Z,99.90
2018-09-23T17:12:59.457Z,99.90
2018-09-23T17:15:27.303Z,99.90
2018-09-23T17:17:54.851Z,99.90
2018-09-23T17:20:22.439Z,99.90
2018-09-23T17:22:50.256Z,99.90
2018-09-23T17:25:17.940Z,99.90
2018-09-23T17:27:45.500Z,99.90
2018-09-23T17:30:13.030Z,99.90
2018-09-23T17:32:40.554Z,99.90
2018-09-23T17:35:08.412Z,99.90
2018-09-23T17:37:35.889Z,99.90
2018-09-23T17:40:03.594Z,99.90
2018-09-23T17:42:31.192Z,99.90
2018-09-23T17:44:58.916Z,99.90
2018-09-23T17:47:26.673Z,99.90
2018-09-23T17:49:54.280Z,99.90
2018-09-23T17:52:21.878Z,99.90
2018-09-23T17:54:49.633Z,99.90
2018-09-23T17:57:17.549Z,99.90
2018-09-23T17:59:45.216Z,99.90
2018-09-23T18:02:12.880Z,99.90
2018-09-23T18:04:40.672Z,99.90
2018-09-23T18:07:08.275Z,99.90
2018-09-23T18:09:35.977Z,99.90
2018-09-23T18:12:03.703Z,99.90
2018-09-23T18:14:31.350Z,99.90
2018-09-23T18:16:59.053Z,99.90
2018-09-23T18:19:26.659Z,99.90
2018-09-23T18:21:54.249Z,99.90
2018-09-23T18:24:22.116Z,99.90
2018-09-23T18:26:49.804Z,99.90
2018-09-23T18:29:17.818Z,99.90
2018-09-23T18:31:45.651Z,99.90
2018-09-23T18:34:13.313Z,99.90
2018-09-23T18:36:41.032Z,99.90
2018-09-23T18:39:09.527Z,99.90
2018-09-23T18:41:37.270Z,99.90
2018-09-23T18:44:05.139Z,99.90
2018-09-23T18:46:32.852Z,99.90
2018-09-23T18:49:00.618Z,99.90
2018-09-23T18:51:28.273Z,99.90
2018-09-23T18:54:01.468Z,99.90
2018-09-23T18:56:29.143Z,99.90
2018-09-23T18:58:56.693Z,99.90
2018-09-23T19:01:24.376Z,99.90
2018-09-23T19:03:51.976Z,99.90
2018-09-23T19:06:19.667Z,99.90
2018-09-23T19:08:47.376Z,99.90
2018-09-23T19:11:14.967Z,99.90
2018-09-23T19:13:48.492Z,99.90
2018-09-23T19:16:21.872Z,99.90
2018-09-23T19:18:49.540Z,99.90
2018-09-23T19:21:17.109Z,99.90
2018-09-23T19:23:44.801Z,99.90
2018-09-23T19:26:12.491Z,99.90
2018-09-23T19:28:40.166Z,99.80
2018-09-23T19:31:07.795Z,98.80
2018-09-23T19:33:35.552Z,99.90
2018-09-23T19:36:03.155Z,99.90
2018-09-23T19:38:30.863Z,98.20
2018-09-23T19:40:58.631Z,99.90
2018-09-23T19:43:26.221Z,99.90
2018-09-23T19:45:53.951Z,99.90
2018-09-23T19:48:21.588Z,99.90
2018-09-23T19:50:49.376Z,99.90
2018-09-23T19:53:17.244Z,99.90
2018-09-23T19:55:45.360Z,99.90
2018-09-23T19:58:13.042Z,99.90
2018-09-23T20:00:40.674Z,99.90
2018-09-23T20:03:08.845Z,99.90
2018-09-23T20:05:36.520Z,99.90
2018-09-23T20:08:04.204Z,99.90
2018-09-23T20:10:31.765Z,99.90
2018-09-23T20:12:59.488Z,99.40
2018-09-23T20:15:27.063Z,99.90
2018-09-23T20:17:54.749Z,99.90
2018-09-23T20:20:22.357Z,99.90
2018-09-23T20:22:50.022Z,99.90
2018-09-23T20:25:17.645Z,99.10
2018-09-23T20:27:45.283Z,99.70
2018-09-23T20:30:12.882Z,98.40
2018-09-23T20:32:40.427Z,99.70
2018-09-23T20:35:08.259Z,99.70
2018-09-23T20:37:37.180Z,99.90
2018-09-23T20:40:05.447Z,98.10
2018-09-23T20:42:33.107Z,98.90
2018-09-23T20:45:01.202Z,99.00
2018-09-23T20:47:29.387Z,99.80
2018-09-23T20:49:57.091Z,99.00
2018-09-23T20:52:24.935Z,99.10
2018-09-23T20:54:52.455Z,97.30
2018-09-23T20:57:20.173Z,96.60
2018-09-23T20:59:47.829Z,96.30
2018-09-23T21:02:15.607Z,95.70
2018-09-23T21:04:43.307Z,96.20
2018-09-23T21:07:11.247Z,97.20
2018-09-23T21:09:38.954Z,98.00
2018-09-23T21:12:06.751Z,98.50
2018-09-23T21:14:34.446Z,97.10
2018-09-23T21:17:02.047Z,95.40
2018-09-23T21:19:29.962Z,97.20
2018-09-23T21:21:57.592Z,97.70
2018-09-23T21:24:25.405Z,97.60
2018-09-23T21:26:52.975Z,98.50
2018-09-23T21:29:20.621Z,98.20
2018-09-23T21:31:48.287Z,99.10
2018-09-23T21:34:15.871Z,99.00
2018-09-23T21:36:53.878Z,98.30
2018-09-23T21:39:21.825Z,96.40
2018-09-23T21:41:49.805Z,96.30
2018-09-23T21:44:17.905Z,96.40
2018-09-23T21:46:45.856Z,98.50
2018-09-23T21:49:14.021Z,97.90
2018-09-23T21:51:41.887Z,97.60
2018-09-23T21:54:09.878Z,97.50
2018-09-23T21:56:37.757Z,97.90
2018-09-23T21:59:05.706Z,97.40
2018-09-23T22:01:33.612Z,96.80
2018-09-23T22:04:02.000Z,97.40
2018-09-23T22:06:29.928Z,97.40
2018-09-23T22:08:58.234Z,98.40
2018-09-23T22:11:26.153Z,97.20
2018-09-23T22:13:54.024Z,97.20
2018-09-23T22:16:21.937Z,96.90
2018-09-23T22:18:49.827Z,97.50
2018-09-23T22:21:17.697Z,96.40
2018-09-23T22:23:45.600Z,97.10
2018-09-23T22:26:13.930Z,98.30
2018-09-23T22:28:41.932Z,96.10
2018-09-23T22:31:09.847Z,99.10
2018-09-23T22:33:38.149Z,97.10
2018-09-23T22:36:06.376Z,98.70
2018-09-23T22:38:34.304Z,99.20
2018-09-23T22:41:02.166Z,99.50
2018-09-23T22:43:30.134Z,99.90
2018-09-23T22:45:58.115Z,99.90
2018-09-23T22:48:26.298Z,99.90
2018-09-23T22:50:54.220Z,98.70
2018-09-23T22:53:22.104Z,98.90
2018-09-23T22:55:50.155Z,96.30
2018-09-23T22:58:18.987Z,98.20
2018-09-23T23:00:46.941Z,98.20
2018-09-23T23:03:14.740Z,98.20
2018-09-23T23:05:42.648Z,97.40
2018-09-23T23:08:10.811Z,97.10
2018-09-23T23:10:38.735Z,97.70
2018-09-23T23:13:06.758Z,96.70
2018-09-23T23:15:34.781Z,96.70
2018-09-23T23:18:02.674Z,98.10
2018-09-23T23:20:44.537Z,99.50
2018-09-23T23:23:12.507Z,99.30
2018-09-23T23:25:40.683Z,99.00
2018-09-23T23:28:08.545Z,99.90
2018-09-23T23:30:36.552Z,99.60
2018-09-23T23:33:04.716Z,99.70
2018-09-23T23:35:32.763Z,99.90
2018-09-23T23:38:00.746Z,99.90
2018-09-23T23:40:28.664Z,99.50
2018-09-23T23:42:56.718Z,97.80
2018-09-23T23:45:24.653Z,97.60
2018-09-23T23:47:52.481Z,97.00
2018-09-23T23:50:21.458Z,98.70
2018-09-23T23:52:49.570Z,96.60
2018-09-23T23:55:17.482Z,98.10
2018-09-23T23:57:45.267Z,97.60
